Colchester, VT

09:08 EDT le 30 août 2016 (GMT -0400)
Department of Public Works | | Change Station

Alt. 302 ft 44.48 °N, 73.17 °W | Updated 15 minutes ago

Scattered Clouds
Nuages épars
64.9 ° F
Paraît 64.9 ° F
N
0.0
Vent Variable Vent de NNE
Gusts 4.0 mph

Aujourd'hui
Haut(e) -- | Bas -- ° F
--% Risque de précip.
Hier
Haut(e) -- | Bas -- ° F
Precip. -- pouce
Pression 30.17 pouce
Visibilité 10.0 Miles terrestres
Nuages Peu 4500 ft
Nuages épars 12000 ft
Point de rosée 58 ° F
Humidité 78%
Précipitations 0.00 pouce
Profondeur de la couche neigeuse Non disponible.
6:13 AM 7:31 PM
Lune descendante, 4% visible
METAR KBTV 301254Z 17004KT 10SM FEW045 SCT120 19/13 A3017 RMK AO2 SLP216 ACC DSNT SE T01890128
Pression 30.17 pouce
Visibilité 10.0 Miles terrestres
Nuages Peu 4500 ft
Nuages épars 12000 ft
Point de rosée 58 ° F
Humidité 78%
Précipitations 0.00 pouce
Profondeur de la couche neigeuse Non disponible.
6:13 AM 7:31 PM
Lune descendante, 4% visible
METAR KBTV 301254Z 17004KT 10SM FEW045 SCT120 19/13 A3017 RMK AO2 SLP216 ACC DSNT SE T01890128

10-Day Weather Forecast

Almanac

Astronomie

Aug. 30, 2016 Lever Coucher
Temps réel
Crépuscule civil
Crépuscule nautique
Crépuscule astronomique
Lune
Durée de lumière visible
Longueur du jour
Tomorrow will be .
, % of the Moon is Illuminated

Extrêmes aujourd'hui

State Highs State Lows

Community

WunderPhotos

Upload Photos

1,935,828 Photos téléchargées !

WunderBlog® & News

Nearby

Qualité de l'air

  Qualité de l'air Indice de la qualité de l'air Polluant
Not available.

Épaisseur de neige

Station Depth Altitude

Activité sismique

Ville Distance Mag. Time & Date
Minimum magnitude displayed is 2.5.

Températures des eaux côtières

Lieu Température

Stations

Stations météo à proximité

Emplacement de la station Température Refroidissement éolien Point de rosée Humidité Vent Precip. Alt. Mise à jour Type
                   

Watches & Warnings

There are currently no watches in effect.